Scotland, Texas
Current Conditions -  °F | °C
As of 11:15 PM on Friday 28 Nov 2014 (Local Time) from KCWC Reporting Station
Clear Clear  
Wind Chill: 60°   Ceiling: Unl
Heat Index: 60°   Visibility: 10mi
Dew Point: 40°   Wind: 15mph
Humidity: 48%   Direction: 200°SSW
Pressure: 29.9"   Gusts: 24mph
Location:  33.66°N, 98.47°W
Report Text: KCWC 290515Z AUTO 20013G21KT 10SM CLR 16/05 A2990 RMK AO2 T01570047
Loading
Personal Weather Stations






























Interactive Weather Map New forecast layout! Learn more

10-Day Weather Forecast

Advertisements
Track Severe Weather on mobile